createdAt,value
2018-03-26T00:00:41.283Z,68.79
2018-03-26T00:01:41.282Z,68.49
2018-03-26T00:02:41.293Z,68.65
2018-03-26T00:03:41.271Z,69.09
2018-03-26T00:04:41.285Z,68.62
2018-03-26T00:05:41.284Z,68.74
2018-03-26T00:06:41.321Z,68.86
2018-03-26T00:07:41.286Z,68.39
2018-03-26T00:08:41.295Z,68.83
2018-03-26T00:09:41.300Z,69.32
2018-03-26T00:10:41.305Z,69.69
2018-03-26T00:11:41.316Z,69.6
2018-03-26T00:12:41.318Z,69.26
2018-03-26T00:13:41.316Z,69.47
2018-03-26T00:14:41.325Z,70.15
2018-03-26T00:15:41.326Z,70.25
2018-03-26T00:16:41.345Z,70.23
2018-03-26T00:17:41.330Z,70.03
2018-03-26T00:18:41.604Z,70.26
2018-03-26T00:19:41.340Z,69.94
2018-03-26T00:20:41.338Z,70.84
2018-03-26T00:21:41.339Z,70.84
2018-03-26T00:22:41.339Z,70.74
2018-03-26T00:23:41.379Z,70.48
2018-03-26T00:24:41.344Z,69.68
2018-03-26T00:25:41.348Z,69.69
2018-03-26T00:26:41.345Z,69.98
2018-03-26T00:27:41.335Z,69.12
2018-03-26T00:28:41.348Z,69.65
2018-03-26T00:29:41.360Z,69.19
2018-03-26T00:30:41.354Z,69.4
2018-03-26T00:31:41.356Z,70.27
2018-03-26T00:32:41.380Z,69.95
2018-03-26T00:33:41.352Z,69.85
2018-03-26T00:34:41.377Z,70.22
2018-03-26T00:35:41.377Z,69.3
2018-03-26T00:36:41.384Z,68.82
2018-03-26T00:37:41.386Z,69.04
2018-03-26T00:38:41.395Z,69.39
2018-03-26T00:39:41.405Z,69.59
2018-03-26T00:40:41.385Z,70.06
2018-03-26T00:41:41.448Z,69.55
2018-03-26T00:42:41.405Z,70.26
2018-03-26T00:43:41.401Z,69.25
2018-03-26T00:44:41.442Z,69.39
2018-03-26T00:45:41.405Z,69.13
2018-03-26T00:46:41.425Z,69.62
2018-03-26T00:47:41.413Z,69.11
2018-03-26T00:48:41.431Z,69.2
2018-03-26T00:49:41.429Z,69.49
2018-03-26T00:50:41.426Z,70.27
2018-03-26T00:51:41.434Z,69.33
2018-03-26T00:52:41.427Z,69.12
2018-03-26T00:53:41.429Z,69.58
2018-03-26T00:54:41.449Z,70.52
2018-03-26T00:55:41.444Z,70.58
2018-03-26T00:56:41.446Z,70.79
2018-03-26T00:57:41.446Z,69.78
2018-03-26T00:58:41.460Z,70.1
2018-03-26T00:59:41.459Z,69.93
2018-03-26T01:00:41.450Z,69.86
2018-03-26T01:01:41.488Z,69.58
2018-03-26T01:02:41.461Z,69.88
2018-03-26T01:03:41.476Z,69.77
2018-03-26T01:04:41.464Z,69.41
2018-03-26T01:05:41.525Z,70.12
2018-03-26T01:06:41.487Z,69.91
2018-03-26T01:07:41.476Z,69.73
2018-03-26T01:08:41.487Z,70.07
2018-03-26T01:09:41.477Z,70.94
2018-03-26T01:10:41.481Z,70.31
2018-03-26T01:11:41.530Z,70.38
2018-03-26T01:12:41.492Z,69.96
2018-03-26T01:13:41.502Z,69.81
2018-03-26T01:14:41.510Z,69.5
2018-03-26T01:15:41.518Z,69.39
2018-03-26T01:16:41.512Z,69.5
2018-03-26T01:17:41.515Z,70.03
2018-03-26T01:18:41.517Z,70.41
2018-03-26T01:19:41.532Z,69.68
2018-03-26T01:20:41.530Z,69.74
2018-03-26T01:21:41.535Z,69.64
2018-03-26T01:22:41.547Z,71.13
2018-03-26T01:23:41.520Z,71.07
2018-03-26T01:24:41.543Z,71.46
2018-03-26T01:25:41.537Z,71.55
2018-03-26T01:26:41.528Z,72.08
2018-03-26T01:27:41.546Z,72.54
2018-03-26T01:28:41.587Z,71.32
2018-03-26T01:29:41.628Z,70.69
2018-03-26T01:30:41.558Z,70.37
2018-03-26T01:31:41.555Z,71.42
2018-03-26T01:32:41.574Z,71.34
2018-03-26T01:33:41.592Z,71.73
2018-03-26T01:34:41.575Z,71.87
2018-03-26T01:35:41.583Z,72.03
2018-03-26T01:36:41.592Z,71.51
2018-03-26T01:37:41.568Z,70.65
2018-03-26T01:38:41.616Z,70.75
2018-03-26T01:39:41.799Z,70.63
2018-03-26T01:40:41.617Z,71.53
2018-03-26T01:41:41.585Z,71.54
2018-03-26T01:42:41.615Z,71.04
2018-03-26T01:43:41.588Z,71.24
2018-03-26T01:44:41.604Z,70.96
2018-03-26T01:45:41.615Z,70.97
2018-03-26T01:46:41.592Z,70.4
2018-03-26T01:47:41.590Z,71.24
2018-03-26T01:48:41.606Z,70.63
2018-03-26T01:49:41.595Z,70.61
2018-03-26T01:50:41.612Z,71.27
2018-03-26T01:51:41.595Z,71.66
2018-03-26T01:52:41.610Z,71.65
2018-03-26T01:53:41.606Z,70.93
2018-03-26T01:54:41.605Z,70.48
2018-03-26T01:55:41.639Z,70.76
2018-03-26T01:56:41.625Z,71.69
2018-03-26T01:57:41.628Z,70.8
2018-03-26T01:58:41.657Z,70.7
2018-03-26T01:59:41.608Z,72.67
2018-03-26T02:00:41.625Z,72.55
2018-03-26T02:01:41.668Z,72.99
2018-03-26T02:02:41.672Z,73.05
2018-03-26T02:03:41.614Z,72.09
2018-03-26T02:04:41.725Z,72.59
2018-03-26T02:05:41.694Z,73.07
2018-03-26T02:06:41.634Z,72.78
2018-03-26T02:07:41.642Z,72.45
2018-03-26T02:08:41.649Z,72.96
2018-03-26T02:09:41.659Z,73.47
2018-03-26T02:10:41.651Z,72.17
2018-03-26T02:11:41.665Z,71.46
2018-03-26T02:12:41.714Z,71.79
2018-03-26T02:13:41.674Z,72.04
2018-03-26T02:14:41.698Z,71.51
2018-03-26T02:15:41.685Z,71.18
2018-03-26T02:16:41.692Z,71.31
2018-03-26T02:17:41.681Z,71.17
2018-03-26T02:18:41.690Z,71.07
2018-03-26T02:19:41.693Z,70.57
2018-03-26T02:20:41.690Z,70.78
2018-03-26T02:21:41.707Z,71.12
2018-03-26T02:22:41.716Z,71.3
2018-03-26T02:23:41.721Z,72.22
2018-03-26T02:24:41.735Z,72.21
2018-03-26T02:25:41.721Z,73.94
2018-03-26T02:26:41.876Z,74.14
2018-03-26T02:27:41.713Z,73.46
2018-03-26T02:28:41.714Z,72.04
2018-03-26T02:29:41.732Z,73
2018-03-26T02:30:41.743Z,73.97
2018-03-26T02:31:41.760Z,74.4
2018-03-26T02:32:41.743Z,74.22
2018-03-26T02:33:41.741Z,74.4
2018-03-26T02:34:41.762Z,74.64
2018-03-26T02:35:41.764Z,73.75
2018-03-26T02:36:41.772Z,73.94
2018-03-26T02:37:41.772Z,73.84
2018-03-26T02:38:41.805Z,74.22
2018-03-26T02:39:41.783Z,74.16
2018-03-26T02:40:41.811Z,75.28
2018-03-26T02:41:41.805Z,74.71
2018-03-26T02:42:41.789Z,74.26
2018-03-26T02:43:41.771Z,73.8
2018-03-26T02:44:41.798Z,73.86
2018-03-26T02:45:41.794Z,73.34
2018-03-26T02:46:41.796Z,72.89
2018-03-26T02:47:41.790Z,73.28
2018-03-26T02:48:41.805Z,74.17
2018-03-26T02:49:41.802Z,73.2
2018-03-26T02:50:42.055Z,73.48
2018-03-26T02:51:41.793Z,74.61
2018-03-26T02:52:41.816Z,74.53
2018-03-26T02:53:41.841Z,74.8
2018-03-26T02:54:41.820Z,74.32
2018-03-26T02:55:41.801Z,74.55
2018-03-26T02:56:41.837Z,74.56
2018-03-26T02:57:41.826Z,74.03
2018-03-26T02:58:41.828Z,74.79
2018-03-26T02:59:41.817Z,74.82
2018-03-26T03:00:41.828Z,74.9
2018-03-26T03:01:41.851Z,74.32
2018-03-26T03:02:41.835Z,75.11
2018-03-26T03:03:41.827Z,75.18
2018-03-26T03:04:41.828Z,75.16
2018-03-26T03:05:41.846Z,75.24
2018-03-26T03:06:41.844Z,74.7
2018-03-26T03:07:41.833Z,74.89
2018-03-26T03:08:41.842Z,74.34
2018-03-26T03:09:41.848Z,74.69
2018-03-26T03:10:41.857Z,73.87
2018-03-26T03:11:41.852Z,73.42
2018-03-26T03:12:41.857Z,72.96
2018-03-26T03:13:41.863Z,74.38
2018-03-26T03:14:41.852Z,74.01
2018-03-26T03:15:41.854Z,73.89
2018-03-26T03:16:41.850Z,73.41
2018-03-26T03:17:41.872Z,72.77
2018-03-26T03:18:41.851Z,72.79
2018-03-26T03:19:41.868Z,73.95
2018-03-26T03:20:41.874Z,73.09
2018-03-26T03:21:41.864Z,74.21
2018-03-26T03:22:41.856Z,74.67
2018-03-26T03:23:41.870Z,74.85
2018-03-26T03:24:41.871Z,73.64
2018-03-26T03:25:41.887Z,74.2
2018-03-26T03:26:41.876Z,73.19
2018-03-26T03:27:41.874Z,74.26
2018-03-26T03:28:41.888Z,74.41
2018-03-26T03:29:42.170Z,74.73
2018-03-26T03:30:41.931Z,74.71
2018-03-26T03:31:42.010Z,74.2
2018-03-26T03:32:41.955Z,73.39
2018-03-26T03:33:41.900Z,74.36
2018-03-26T03:34:41.920Z,73.35
2018-03-26T03:35:41.900Z,73.75
2018-03-26T03:36:41.974Z,72.88
2018-03-26T03:37:41.921Z,72.78
2018-03-26T03:38:41.939Z,72.47
2018-03-26T03:39:41.940Z,72.87
2018-03-26T03:40:41.932Z,72.86
2018-03-26T03:41:41.957Z,72.77
2018-03-26T03:42:41.937Z,72.54
2018-03-26T03:43:41.920Z,75.05
2018-03-26T03:44:41.937Z,75.17
2018-03-26T03:45:41.928Z,75.32
2018-03-26T03:46:41.934Z,75.12
2018-03-26T03:47:41.941Z,74.58
2018-03-26T03:48:41.953Z,74.78
2018-03-26T03:49:41.942Z,73.89
2018-03-26T03:50:42.028Z,74.14
2018-03-26T03:51:41.948Z,73.42
2018-03-26T03:52:41.956Z,73.04
2018-03-26T03:53:41.952Z,73.12
2018-03-26T03:54:41.961Z,73.75
2018-03-26T03:55:41.991Z,74.83
2018-03-26T03:56:41.969Z,73.57
2018-03-26T03:57:41.971Z,75.07
2018-03-26T03:58:42.029Z,76.16
2018-03-26T03:59:41.983Z,75.41
2018-03-26T04:00:41.990Z,74.73
2018-03-26T04:01:42.005Z,75.79
2018-03-26T04:02:42.160Z,75.24
2018-03-26T04:03:41.999Z,75.35
2018-03-26T04:04:42.003Z,75.47
2018-03-26T04:05:41.995Z,75.69
2018-03-26T04:06:41.996Z,74.63
2018-03-26T04:07:42.038Z,74.24
2018-03-26T04:08:41.996Z,75.17
2018-03-26T04:09:42.007Z,74.97
2018-03-26T04:10:42.002Z,75.39
2018-03-26T04:11:42.016Z,74.87
2018-03-26T04:12:42.011Z,74.03
2018-03-26T04:13:42.032Z,75.35
2018-03-26T04:14:42.029Z,75.35
2018-03-26T04:15:42.030Z,75.95
2018-03-26T04:16:42.011Z,76.04
2018-03-26T04:17:42.018Z,75.04
2018-03-26T04:18:42.042Z,75.25
2018-03-26T04:19:42.038Z,75.57
2018-03-26T04:20:42.023Z,75.41
2018-03-26T04:21:42.018Z,74.94
2018-03-26T04:22:42.024Z,74.86
2018-03-26T04:23:42.053Z,74.64
2018-03-26T04:24:42.040Z,74.03
2018-03-26T04:25:42.035Z,73.46
2018-03-26T04:26:42.051Z,73.57
2018-03-26T04:27:42.064Z,75.08
2018-03-26T04:28:42.086Z,75.31
2018-03-26T04:29:42.099Z,74.83
2018-03-26T04:30:42.072Z,75.45
2018-03-26T04:31:42.096Z,74.46
2018-03-26T04:32:42.071Z,75.38
2018-03-26T04:33:42.078Z,75.71
2018-03-26T04:34:42.073Z,75.21
2018-03-26T04:35:42.092Z,75.31
2018-03-26T04:36:42.091Z,75.25
2018-03-26T04:37:42.085Z,75.34
2018-03-26T04:38:42.084Z,74.36
2018-03-26T04:39:42.076Z,73.76
2018-03-26T04:40:42.100Z,74.09
2018-03-26T04:41:42.325Z,74.56
2018-03-26T04:42:42.094Z,73.83
2018-03-26T04:43:42.095Z,73.64
2018-03-26T04:44:42.103Z,74.9
2018-03-26T04:45:42.113Z,75.65
2018-03-26T04:46:42.120Z,74.99
2018-03-26T04:47:42.141Z,75.76
2018-03-26T04:48:42.118Z,74.56
2018-03-26T04:49:42.138Z,75.93
2018-03-26T04:50:42.121Z,75.18
2018-03-26T04:51:42.122Z,74.35
2018-03-26T04:52:42.124Z,75.25
2018-03-26T04:53:42.122Z,74.66
2018-03-26T04:54:42.142Z,74.21
2018-03-26T04:55:42.146Z,73.91
2018-03-26T04:56:42.139Z,73.43
2018-03-26T04:57:42.138Z,73.76
2018-03-26T04:58:42.145Z,73.57
2018-03-26T04:59:42.129Z,74.78
2018-03-26T05:00:42.143Z,74.05
2018-03-26T05:01:42.154Z,73.75
2018-03-26T05:02:42.158Z,74.16
2018-03-26T05:03:42.157Z,73.85
2018-03-26T05:04:42.158Z,73.98
2018-03-26T05:05:42.166Z,74.38
2018-03-26T05:06:42.161Z,75.36
2018-03-26T05:07:42.161Z,74.15
2018-03-26T05:08:42.171Z,74.59
2018-03-26T05:09:42.172Z,73.73
2018-03-26T05:10:42.166Z,74.87
2018-03-26T05:11:42.171Z,75.04
2018-03-26T05:12:42.209Z,74.9
2018-03-26T05:13:42.177Z,74.87
2018-03-26T05:14:42.204Z,74.49
2018-03-26T05:15:42.199Z,74.71
2018-03-26T05:16:42.194Z,74.16
2018-03-26T05:17:42.193Z,74.62
2018-03-26T05:18:42.193Z,74.76
2018-03-26T05:19:42.210Z,74.38
2018-03-26T05:20:42.202Z,74.87
2018-03-26T05:21:42.221Z,75.39
2018-03-26T05:22:42.458Z,76.32
2018-03-26T05:23:42.207Z,75.65
2018-03-26T05:24:42.206Z,75.75
2018-03-26T05:25:42.215Z,75.27
2018-03-26T05:26:42.225Z,74.64
2018-03-26T05:27:42.270Z,75.67
2018-03-26T05:28:42.237Z,75.55
2018-03-26T05:29:42.302Z,75.2
2018-03-26T05:30:42.232Z,75.86
2018-03-26T05:31:42.231Z,76.47
2018-03-26T05:32:42.526Z,75.35
2018-03-26T05:33:42.240Z,75.39
2018-03-26T05:34:42.248Z,75.07
2018-03-26T05:35:42.263Z,75.28
2018-03-26T05:36:42.259Z,75.38
2018-03-26T05:37:42.288Z,75.77
2018-03-26T05:38:42.259Z,74.94
2018-03-26T05:39:42.266Z,75.19
2018-03-26T05:40:42.273Z,75.65
2018-03-26T05:41:42.277Z,74.84
2018-03-26T05:42:42.280Z,75.73
2018-03-26T05:43:42.291Z,75.88
2018-03-26T05:44:42.284Z,75.85
2018-03-26T05:45:42.292Z,75.88
2018-03-26T05:46:42.281Z,76.29
2018-03-26T05:47:42.288Z,75.7
2018-03-26T05:48:42.291Z,75.09
2018-03-26T05:49:42.298Z,75.94
2018-03-26T05:50:42.308Z,75.32
2018-03-26T05:51:42.316Z,74.86
2018-03-26T05:52:42.336Z,74.64
2018-03-26T05:53:42.328Z,75.34
2018-03-26T05:54:42.317Z,75.41
2018-03-26T05:55:42.342Z,75.33
2018-03-26T05:56:42.402Z,75.7
2018-03-26T05:57:42.368Z,74.99
2018-03-26T05:58:42.354Z,75.57
2018-03-26T05:59:42.345Z,74.77
2018-03-26T06:00:42.349Z,75.1
2018-03-26T06:01:42.341Z,74.81
2018-03-26T06:02:42.359Z,74.95
2018-03-26T06:03:42.359Z,76.17
2018-03-26T06:04:42.354Z,76.15
2018-03-26T06:05:42.360Z,75.97
2018-03-26T06:06:42.367Z,75.51
2018-03-26T06:07:42.370Z,75.93
2018-03-26T06:08:42.385Z,75.7
2018-03-26T06:09:42.377Z,75.56
2018-03-26T06:10:42.406Z,76.71
2018-03-26T06:11:42.387Z,76.16
2018-03-26T06:12:42.394Z,76.62
2018-03-26T06:13:42.392Z,76.35
2018-03-26T06:14:42.403Z,75.53
2018-03-26T06:15:42.401Z,76
2018-03-26T06:16:42.401Z,76.36
2018-03-26T06:17:42.409Z,76.04
2018-03-26T06:18:42.399Z,75.09
2018-03-26T06:19:42.411Z,75.97
2018-03-26T06:20:42.424Z,75.17
2018-03-26T06:21:42.432Z,74.83
2018-03-26T06:22:42.428Z,74.77
2018-03-26T06:23:42.424Z,76.47
2018-03-26T06:24:42.431Z,76.78
2018-03-26T06:25:42.452Z,76.66
2018-03-26T06:26:42.441Z,75.92
2018-03-26T06:27:42.440Z,75.01
2018-03-26T06:28:42.458Z,74.73
2018-03-26T06:29:42.450Z,75.26
2018-03-26T06:30:42.736Z,75.24
2018-03-26T06:31:42.474Z,75.05
2018-03-26T06:32:42.452Z,75.95
2018-03-26T06:33:42.462Z,76.18
2018-03-26T06:34:42.464Z,75.4
2018-03-26T06:35:42.478Z,74.64
2018-03-26T06:36:42.480Z,75.12
2018-03-26T06:37:42.474Z,75.26
2018-03-26T06:38:42.490Z,74.47
2018-03-26T06:39:42.481Z,74.81
2018-03-26T06:40:42.482Z,75.69
2018-03-26T06:41:42.482Z,75.72
2018-03-26T06:42:42.482Z,75.76
2018-03-26T06:43:42.495Z,75.33
2018-03-26T06:44:42.501Z,74.33
2018-03-26T06:45:42.569Z,74.05
2018-03-26T06:46:42.666Z,73.99
2018-03-26T06:47:42.504Z,75.39
2018-03-26T06:48:42.508Z,74.89
2018-03-26T06:49:42.528Z,74.32
2018-03-26T06:50:42.564Z,75.44
2018-03-26T06:51:42.535Z,75.38
2018-03-26T06:52:42.527Z,75.85
2018-03-26T06:53:42.527Z,76.31
2018-03-26T06:54:42.527Z,76.28
2018-03-26T06:55:42.539Z,75.13
2018-03-26T06:56:42.758Z,75.55
2018-03-26T06:57:42.530Z,76.15
2018-03-26T06:58:42.543Z,75.45
2018-03-26T06:59:42.534Z,74.97
2018-03-26T07:00:42.537Z,75.07
2018-03-26T07:01:42.553Z,75.05
2018-03-26T07:02:42.538Z,75.64
2018-03-26T07:03:42.545Z,75.79
2018-03-26T07:04:42.553Z,74.77
2018-03-26T07:05:42.545Z,75.1
2018-03-26T07:06:42.673Z,75.48
2018-03-26T07:07:42.620Z,75.81
2018-03-26T07:08:42.568Z,75.16
2018-03-26T07:09:42.576Z,75.3
2018-03-26T07:10:42.569Z,74.92
2018-03-26T07:11:42.569Z,74.73
2018-03-26T07:12:42.593Z,75.37
2018-03-26T07:13:42.567Z,75.25
2018-03-26T07:14:42.620Z,75.42
2018-03-26T07:15:42.578Z,74.72
2018-03-26T07:16:42.590Z,76.11
2018-03-26T07:17:42.586Z,76.14
2018-03-26T07:18:42.594Z,76.77
2018-03-26T07:19:42.589Z,76.65
2018-03-26T07:20:42.609Z,76.44
2018-03-26T07:21:42.837Z,76.66
2018-03-26T07:22:42.604Z,76.62
2018-03-26T07:23:42.615Z,75.86
2018-03-26T07:24:42.605Z,76.73
2018-03-26T07:25:42.617Z,75.94
2018-03-26T07:26:42.607Z,76.19
2018-03-26T07:27:42.618Z,75.32
2018-03-26T07:28:42.617Z,75.47
2018-03-26T07:29:42.610Z,76.38
2018-03-26T07:30:42.642Z,75.49
2018-03-26T07:31:42.623Z,75.84
2018-03-26T07:32:42.674Z,75.04
2018-03-26T07:33:42.628Z,76.38
2018-03-26T07:34:42.640Z,75.86
2018-03-26T07:35:42.644Z,76.06
2018-03-26T07:36:42.636Z,74.98
2018-03-26T07:37:42.657Z,76.32
2018-03-26T07:38:42.649Z,75.87
2018-03-26T07:39:42.643Z,75.62
2018-03-26T07:40:42.648Z,76.22
2018-03-26T07:41:42.650Z,75.58
2018-03-26T07:42:42.647Z,75.72
2018-03-26T07:43:42.660Z,75.44
2018-03-26T07:44:42.652Z,75.27
2018-03-26T07:45:42.647Z,75.06
2018-03-26T07:46:42.651Z,75.28
2018-03-26T07:47:42.664Z,75.25
2018-03-26T07:48:42.663Z,75.4
2018-03-26T07:49:42.674Z,75.11
2018-03-26T07:50:42.667Z,75.13
2018-03-26T07:51:42.692Z,74.77
2018-03-26T07:52:42.686Z,74.73
2018-03-26T07:53:42.693Z,74.63
2018-03-26T07:54:42.697Z,74.33
2018-03-26T07:55:42.698Z,74.81
2018-03-26T07:56:42.714Z,74.71
2018-03-26T07:57:42.688Z,74.51
2018-03-26T07:58:42.706Z,74.25
2018-03-26T07:59:42.709Z,74.23
2018-03-26T08:00:42.681Z,73.74
2018-03-26T08:01:42.697Z,73.79
2018-03-26T08:02:42.698Z,73.77
2018-03-26T08:03:42.706Z,73.59
2018-03-26T08:04:42.720Z,73.53
2018-03-26T08:05:42.720Z,73.44
2018-03-26T08:06:42.714Z,73.37
2018-03-26T08:07:42.723Z,73.39
2018-03-26T08:08:42.716Z,72.75
2018-03-26T08:09:42.719Z,72.81
2018-03-26T08:10:42.732Z,72.84
2018-03-26T08:11:42.736Z,72.93
2018-03-26T08:12:42.740Z,73.3
2018-03-26T08:13:42.749Z,72.72
2018-03-26T08:14:42.753Z,72.27
2018-03-26T08:15:42.752Z,72.37
2018-03-26T08:16:42.935Z,71.37
2018-03-26T08:17:42.750Z,71.44
2018-03-26T08:18:42.763Z,70.91
2018-03-26T08:19:42.764Z,71.11
2018-03-26T08:20:42.771Z,70.72
2018-03-26T08:21:42.760Z,70.94
2018-03-26T08:22:42.766Z,70.8
2018-03-26T08:23:42.886Z,70.77
2018-03-26T08:24:42.804Z,70.74
2018-03-26T08:25:42.804Z,70.59
2018-03-26T08:26:42.790Z,70.49
2018-03-26T08:27:42.789Z,69.99
2018-03-26T08:28:42.803Z,71.11
2018-03-26T08:29:42.793Z,69.59
2018-03-26T08:30:42.808Z,69.53
2018-03-26T08:31:42.808Z,69.62
2018-03-26T08:32:42.810Z,69.96
2018-03-26T08:33:42.837Z,69.77
2018-03-26T08:34:42.816Z,69.96
2018-03-26T08:35:42.814Z,69.8
2018-03-26T08:36:42.869Z,69.54
2018-03-26T08:37:42.825Z,69.43
2018-03-26T08:38:42.836Z,69.02
2018-03-26T08:39:42.839Z,68.47
2018-03-26T08:40:42.871Z,68.78
2018-03-26T08:41:42.839Z,68.77
2018-03-26T08:42:42.845Z,69.28
2018-03-26T08:43:42.906Z,69.33
2018-03-26T08:44:42.844Z,69
2018-03-26T08:45:42.875Z,69.27
2018-03-26T08:48:49.043Z,68.33
2018-03-26T08:49:43.100Z,68.89
2018-03-26T08:50:43.167Z,69.09
2018-03-26T08:51:42.884Z,68.82
2018-03-26T08:52:42.874Z,68.91
2018-03-26T08:53:42.881Z,69.04
2018-03-26T08:54:42.885Z,68.77
2018-03-26T08:55:42.910Z,69.23
2018-03-26T08:56:42.883Z,69.22
2018-03-26T08:57:42.869Z,69.15
2018-03-26T08:58:42.870Z,68.87
2018-03-26T08:59:42.879Z,68.74
2018-03-26T09:00:42.902Z,68.3
2018-03-26T09:01:42.904Z,68.33
2018-03-26T09:02:42.898Z,67.98
2018-03-26T09:03:42.902Z,68.23
2018-03-26T09:04:42.913Z,68.5
2018-03-26T09:05:42.914Z,68.05
2018-03-26T09:06:42.916Z,68.6
2018-03-26T09:07:42.896Z,68.43
2018-03-26T09:08:42.914Z,68.2
2018-03-26T09:09:42.911Z,68.46
2018-03-26T09:10:42.932Z,68.22
2018-03-26T09:11:42.928Z,68.42
2018-03-26T09:12:42.932Z,68.53
2018-03-26T09:13:42.930Z,67.98
2018-03-26T09:14:42.974Z,68.18
2018-03-26T09:15:42.932Z,68.23
2018-03-26T09:16:42.926Z,67.97
2018-03-26T09:17:42.922Z,67.33
2018-03-26T09:18:42.924Z,67.86
2018-03-26T09:20:42.954Z,67.96
2018-03-26T09:21:42.962Z,67.41
2018-03-26T09:22:42.953Z,67.68
2018-03-26T09:23:42.959Z,67.66
2018-03-26T09:24:42.948Z,67.7
2018-03-26T09:25:42.986Z,67.56
2018-03-26T09:26:42.993Z,67.58
2018-03-26T09:27:42.985Z,67.08
2018-03-26T09:28:42.992Z,67.49
2018-03-26T09:29:43.017Z,67.75
2018-03-26T09:30:42.989Z,67.77
2018-03-26T09:31:42.990Z,67.5
2018-03-26T09:32:43.024Z,67.11
2018-03-26T09:33:43.004Z,67.2
2018-03-26T09:34:43.012Z,67.45
2018-03-26T09:35:43.005Z,67.41
2018-03-26T09:36:43.000Z,67.54
2018-03-26T09:37:43.029Z,67.06
2018-03-26T09:38:43.042Z,67.21
2018-03-26T09:39:43.030Z,67.41
2018-03-26T09:40:43.023Z,67.36
2018-03-26T09:41:43.030Z,66.8
2018-03-26T09:42:43.095Z,66.81
2018-03-26T09:43:43.034Z,66.04
2018-03-26T09:44:43.038Z,66.53
2018-03-26T09:45:43.035Z,65.77
2018-03-26T09:46:43.047Z,65.77
2018-03-26T09:47:43.214Z,64.96
2018-03-26T09:48:43.046Z,65.32
2018-03-26T09:49:43.051Z,64.53
2018-03-26T09:50:43.054Z,64.4
2018-03-26T09:51:43.061Z,64.49
2018-03-26T09:52:43.078Z,63.74
2018-03-26T11:47:14.705Z,57.96
2018-03-26T11:48:14.697Z,57.94
2018-03-26T11:49:15.231Z,57.78
2018-03-26T11:50:18.661Z,57.44
2018-03-26T11:51:15.958Z,58.13
2018-03-26T11:52:17.396Z,58.1
2018-03-26T11:53:18.046Z,57.9
2018-03-26T11:54:18.055Z,57.66
2018-03-26T11:55:18.036Z,57.78
2018-03-26T11:56:18.047Z,57.77
2018-03-26T11:57:59.709Z,57.68
2018-03-26T11:58:59.701Z,57.2
2018-03-26T11:59:59.694Z,58.09
2018-03-26T12:00:59.689Z,57.42
2018-03-26T12:01:59.693Z,57.79
2018-03-26T12:02:59.690Z,57.58
2018-03-26T12:03:59.685Z,57.35
2018-03-26T12:04:59.705Z,57.4
2018-03-26T12:05:59.683Z,57.14
2018-03-26T12:06:59.685Z,57.42
2018-03-26T12:07:59.679Z,57.46
2018-03-26T12:08:59.675Z,57.23
2018-03-26T12:09:59.675Z,57.53
2018-03-26T12:10:59.678Z,57.63
2018-03-26T12:11:59.681Z,57.82
2018-03-26T12:12:59.675Z,57.6
2018-03-26T12:13:59.679Z,57.45
2018-03-26T12:14:59.672Z,57.49
2018-03-26T12:15:59.677Z,57.44
2018-03-26T12:16:59.675Z,57.5
2018-03-26T12:17:59.664Z,57.54
2018-03-26T12:18:59.664Z,57.89
2018-03-26T12:19:59.662Z,58.19
2018-03-26T12:20:59.679Z,58.17
2018-03-26T12:21:59.667Z,57.45
2018-03-26T12:23:00.039Z,57.38
2018-03-26T12:23:59.674Z,57.75
2018-03-26T12:24:59.664Z,57.65
2018-03-26T12:25:59.647Z,57.71
2018-03-26T12:26:59.666Z,57.8
2018-03-26T12:27:59.734Z,57.53
2018-03-26T12:28:59.646Z,58.12
2018-03-26T12:29:59.660Z,57.54
2018-03-26T12:30:59.654Z,57.61
2018-03-26T12:31:59.696Z,58.03
2018-03-26T12:32:59.671Z,58.25
2018-03-26T12:33:59.655Z,58.18
2018-03-26T12:34:59.639Z,58.09
2018-03-26T12:35:59.645Z,57.64
2018-03-26T12:36:59.711Z,57.71
2018-03-26T12:37:59.635Z,57.76
2018-03-26T12:38:59.657Z,57.9
2018-03-26T12:39:59.905Z,58.19
2018-03-26T12:40:59.644Z,58.38
2018-03-26T12:41:59.643Z,58.16
2018-03-26T12:42:59.643Z,57.87
2018-03-26T12:43:59.629Z,57.61
2018-03-26T12:44:59.636Z,57.83
2018-03-26T12:45:59.645Z,56.95
2018-03-26T12:46:59.689Z,57.12
2018-03-26T12:47:59.624Z,56.88
2018-03-26T12:48:59.642Z,57.51
2018-03-26T12:49:59.613Z,57.05
2018-03-26T12:50:59.615Z,57.56
2018-03-26T12:51:59.628Z,56.05
2018-03-26T12:52:59.613Z,56.24
2018-03-26T12:53:59.608Z,56.69
2018-03-26T12:54:59.617Z,56.92
2018-03-26T12:55:59.610Z,56.58
2018-03-26T12:56:59.614Z,56.54
2018-03-26T12:57:59.603Z,57.01
2018-03-26T12:58:59.699Z,57.03
2018-03-26T12:59:59.706Z,57.03
2018-03-26T13:00:59.599Z,57.23
2018-03-26T13:01:59.626Z,57.16
2018-03-26T13:02:59.606Z,55.72
2018-03-26T13:03:59.602Z,55.95
2018-03-26T13:04:59.599Z,56.73
2018-03-26T13:05:59.613Z,57.31
2018-03-26T13:06:59.586Z,57.01
2018-03-26T13:07:59.598Z,57.36
2018-03-26T13:08:59.581Z,56.78
2018-03-26T13:09:59.588Z,56.98
2018-03-26T13:10:59.604Z,56.92
2018-03-26T13:11:59.586Z,56.89
2018-03-26T13:12:59.581Z,56.7
2018-03-26T13:13:59.582Z,56.29
2018-03-26T13:14:59.584Z,56.09
2018-03-26T13:15:59.572Z,56.26
2018-03-26T13:16:59.575Z,55.92
2018-03-26T13:17:59.571Z,56.2
2018-03-26T13:18:59.575Z,55.76
2018-03-26T13:19:59.583Z,55.97
2018-03-26T13:20:59.590Z,55.87
2018-03-26T13:21:59.587Z,55.87
2018-03-26T13:22:59.566Z,56.25
2018-03-26T13:23:59.578Z,56.4
2018-03-26T13:24:59.560Z,56.46
2018-03-26T13:25:59.569Z,56.47
2018-03-26T13:26:59.559Z,56.05
2018-03-26T13:27:59.558Z,56.03
2018-03-26T13:28:59.576Z,55.62
2018-03-26T13:57:20.453Z,56.03
2018-03-26T13:58:20.352Z,55.55
2018-03-26T13:59:20.313Z,56.18
2018-03-26T14:00:20.353Z,55.72
2018-03-26T14:01:20.314Z,56.16
2018-03-26T14:02:20.313Z,56.06
2018-03-26T14:03:20.309Z,56.25
2018-03-26T14:04:20.306Z,55.45
2018-03-26T14:05:20.305Z,56.17
2018-03-26T14:06:20.312Z,56.26
2018-03-26T14:07:20.474Z,55.96
2018-03-26T14:08:20.293Z,56.16
2018-03-26T14:09:20.299Z,55.87
2018-03-26T14:10:20.295Z,55.4
2018-03-26T14:11:20.329Z,55.51
2018-03-26T14:12:20.288Z,56.11
2018-03-26T14:13:20.285Z,56
2018-03-26T14:14:20.293Z,56.03
2018-03-26T14:15:20.289Z,56.35
2018-03-26T14:16:20.336Z,55.81
2018-03-26T14:17:20.280Z,55.13
2018-03-26T14:18:20.324Z,55.6
2018-03-26T14:19:20.268Z,55.62
2018-03-26T14:20:20.279Z,55.61
2018-03-26T14:21:20.284Z,55.82
2018-03-26T14:22:20.274Z,55.87
2018-03-26T14:23:20.273Z,55.41
2018-03-26T14:24:20.262Z,54.9
2018-03-26T14:25:20.265Z,55
2018-03-26T14:26:20.289Z,54.69
2018-03-26T14:27:20.339Z,55.08
2018-03-26T14:28:20.271Z,55.27
2018-03-26T14:29:20.316Z,55.49
2018-03-26T14:30:20.271Z,54.76
2018-03-26T14:31:20.268Z,54
2018-03-26T14:32:20.297Z,53.48
2018-03-26T14:33:20.321Z,53.21
2018-03-26T14:34:20.251Z,53.25
2018-03-26T14:35:20.277Z,53.46
2018-03-26T14:36:20.283Z,53.56
2018-03-26T14:37:20.313Z,53.92
2018-03-26T14:38:20.269Z,53.78
2018-03-26T14:39:20.507Z,53.04
2018-03-26T14:40:20.255Z,53.75
2018-03-26T14:41:20.277Z,53.1
2018-03-26T14:42:20.325Z,53.14
2018-03-26T14:43:20.264Z,53.55
2018-03-26T14:44:20.274Z,53.18
2018-03-26T14:45:20.249Z,53.26
2018-03-26T14:46:20.247Z,53.92
2018-03-26T14:47:20.236Z,53.26
2018-03-26T14:48:20.230Z,53.19
2018-03-26T14:49:20.263Z,53.04
2018-03-26T14:50:20.374Z,52.11
2018-03-26T14:51:20.228Z,50.34
2018-03-26T14:52:20.231Z,49.36
2018-03-26T14:53:20.255Z,49.58
2018-03-26T14:54:20.257Z,50.84
2018-03-26T14:55:20.240Z,51.1
2018-03-26T14:56:20.620Z,51.47
2018-03-26T14:57:20.226Z,51.74
2018-03-26T14:58:20.285Z,51.49
2018-03-26T14:59:20.225Z,51.36
2018-03-26T15:00:20.237Z,51.42
2018-03-26T15:01:20.259Z,51.27
2018-03-26T15:02:20.235Z,51.27
2018-03-26T15:03:20.206Z,51.13
2018-03-26T15:04:20.203Z,50.84
2018-03-26T15:05:20.208Z,50.83
2018-03-26T15:06:20.218Z,51.14
2018-03-26T15:07:20.226Z,50.4
2018-03-26T15:08:20.199Z,51.53
2018-03-26T15:09:20.239Z,50.23
2018-03-26T15:10:20.211Z,49.76
2018-03-26T15:11:20.230Z,50.79
2018-03-26T15:12:20.200Z,50.8
2018-03-26T15:13:20.212Z,49.97
2018-03-26T15:14:20.211Z,50.35
2018-03-26T15:15:20.203Z,48.23
2018-03-26T15:16:20.272Z,49.15
2018-03-26T15:17:20.187Z,48.68
2018-03-26T15:18:20.187Z,48.33
2018-03-26T15:19:20.192Z,49.95
2018-03-26T15:20:20.400Z,49.21